createdAt,value
2023-01-25T00:02:18.828Z,24.10
2023-01-25T00:04:47.345Z,24.50
2023-01-25T00:07:15.772Z,24.83
2023-01-25T00:09:44.267Z,23.40
2023-01-25T00:12:14.043Z,23.33
2023-01-25T00:14:42.484Z,22.77
2023-01-25T00:17:11.099Z,24.07
2023-01-25T00:19:39.518Z,25.13
2023-01-25T00:22:08.296Z,25.40
2023-01-25T00:24:36.746Z,24.37
2023-01-25T00:27:05.570Z,23.77
2023-01-25T00:29:35.396Z,23.53
2023-01-25T00:32:28.702Z,24.20
2023-01-25T00:34:59.074Z,23.43
2023-01-25T00:37:32.109Z,23.33
2023-01-25T00:40:00.493Z,25.63
2023-01-25T00:42:28.851Z,24.13
2023-01-25T00:44:58.524Z,24.80
2023-01-25T00:47:26.964Z,25.37
2023-01-25T00:49:55.729Z,24.37
2023-01-25T00:52:24.184Z,24.03
2023-01-25T00:54:52.643Z,24.93
2023-01-25T00:57:20.963Z,25.27
2023-01-25T00:59:49.580Z,24.77
2023-01-25T01:02:19.460Z,25.80
2023-01-25T01:04:47.967Z,25.07
2023-01-25T01:07:16.575Z,24.93
2023-01-25T01:09:45.127Z,24.93
2023-01-25T01:12:14.072Z,24.33
2023-01-25T01:14:45.071Z,25.70
2023-01-25T01:17:13.916Z,25.57
2023-01-25T01:19:44.228Z,24.50
2023-01-25T01:22:12.737Z,23.20
2023-01-25T01:24:42.488Z,25.37
2023-01-25T01:27:11.069Z,24.57
2023-01-25T01:29:40.077Z,25.20
2023-01-25T01:32:08.668Z,25.00
2023-01-25T01:34:37.330Z,25.93
2023-01-25T01:37:07.227Z,23.83
2023-01-25T01:39:35.857Z,24.20
2023-01-25T01:42:04.601Z,25.10
2023-01-25T01:44:46.682Z,25.07
2023-01-25T01:47:21.410Z,24.07
2023-01-25T01:49:55.242Z,25.10
2023-01-25T01:52:30.077Z,24.37
2023-01-25T01:55:04.641Z,24.53
2023-01-25T01:57:37.627Z,22.43
2023-01-25T02:00:09.884Z,23.73
2023-01-25T02:02:47.378Z,23.50
2023-01-25T02:05:21.209Z,23.93
2023-01-25T02:07:53.670Z,25.63
2023-01-25T02:10:25.071Z,23.67
2023-01-25T02:12:58.695Z,24.60
2023-01-25T02:15:30.368Z,24.30
2023-01-25T02:18:01.307Z,25.70
2023-01-25T02:20:37.566Z,24.77
2023-01-25T02:23:16.359Z,23.73
2023-01-25T02:25:48.846Z,25.03
2023-01-25T02:28:22.457Z,23.70
2023-01-25T02:30:51.157Z,23.97
2023-01-25T02:33:19.604Z,25.73
2023-01-25T02:35:51.377Z,24.43
2023-01-25T02:38:21.297Z,25.67
2023-01-25T02:40:59.213Z,23.90
2023-01-25T02:43:33.721Z,23.63
2023-01-25T02:46:13.067Z,24.37
2023-01-25T02:48:45.886Z,25.00
2023-01-25T02:51:14.532Z,25.60
2023-01-25T02:53:43.203Z,25.87
2023-01-25T02:56:13.160Z,26.20
2023-01-25T02:58:41.910Z,24.60
2023-01-25T03:01:11.593Z,25.07
2023-01-25T03:03:43.057Z,24.73
2023-01-25T03:06:11.917Z,23.43
2023-01-25T03:08:41.595Z,23.73
2023-01-25T03:11:10.220Z,24.43
2023-01-25T03:13:40.187Z,23.90
2023-01-25T03:16:11.189Z,24.57
2023-01-25T03:18:42.358Z,25.87
2023-01-25T03:21:12.862Z,22.63
2023-01-25T03:23:42.492Z,24.50
2023-01-25T03:26:14.166Z,24.37
2023-01-25T03:28:58.999Z,24.47
2023-01-25T03:31:27.555Z,24.33
2023-01-25T03:33:56.014Z,23.93
2023-01-25T03:36:28.471Z,23.23
2023-01-25T03:38:57.233Z,22.87
2023-01-25T03:41:25.874Z,23.87
2023-01-25T03:43:54.361Z,22.57
2023-01-25T03:46:24.516Z,23.70
2023-01-25T03:48:53.145Z,21.93
2023-01-25T03:51:21.576Z,23.13
2023-01-25T03:53:50.098Z,24.33
2023-01-25T03:56:20.596Z,24.73
2023-01-25T03:59:21.175Z,24.40
2023-01-25T04:01:52.765Z,23.30
2023-01-25T04:04:21.621Z,25.17
2023-01-25T04:06:50.814Z,22.90
2023-01-25T04:09:20.094Z,23.83
2023-01-25T04:11:53.177Z,25.23
2023-01-25T04:14:35.074Z,24.90
2023-01-25T04:17:12.988Z,23.43
2023-01-25T04:19:53.386Z,24.27
2023-01-25T04:22:26.591Z,26.73
2023-01-25T04:24:57.388Z,25.33
2023-01-25T04:27:25.899Z,25.17
2023-01-25T04:30:15.723Z,24.50
2023-01-25T04:32:49.425Z,23.87
2023-01-25T04:35:22.980Z,22.13
2023-01-25T04:37:56.234Z,24.93
2023-01-25T04:40:27.732Z,25.20
2023-01-25T04:42:57.068Z,26.37
2023-01-25T04:45:26.684Z,22.93
2023-01-25T04:48:02.533Z,25.03
2023-01-25T04:50:32.081Z,25.50
2023-01-25T04:53:01.585Z,27.23
2023-01-25T04:55:33.593Z,24.73
2023-01-25T04:58:03.306Z,23.63
2023-01-25T05:00:33.199Z,24.30
2023-01-25T05:03:05.532Z,24.40
2023-01-25T05:05:34.430Z,24.57
2023-01-25T05:08:07.743Z,24.57
2023-01-25T05:10:36.617Z,24.23
2023-01-25T05:13:28.070Z,24.30
2023-01-25T05:16:09.827Z,23.87
2023-01-25T05:18:48.418Z,25.97
2023-01-25T05:21:38.940Z,24.40
2023-01-25T05:24:08.691Z,24.97
2023-01-25T05:26:54.480Z,23.03
2023-01-25T05:29:23.429Z,24.57
2023-01-25T05:31:56.852Z,23.97
2023-01-25T05:34:27.254Z,25.03
2023-01-25T05:36:56.014Z,24.30
2023-01-25T05:39:24.773Z,25.40
2023-01-25T05:41:55.020Z,24.50
2023-01-25T05:44:24.533Z,25.20
2023-01-25T05:46:54.341Z,25.27
2023-01-25T05:49:23.687Z,26.43
2023-01-25T05:51:56.060Z,25.03
2023-01-25T05:54:24.571Z,25.67
2023-01-25T05:57:01.582Z,24.90
2023-01-25T05:59:30.188Z,22.87
2023-01-25T06:02:00.870Z,23.70
2023-01-25T06:04:29.501Z,22.77
2023-01-25T06:06:59.274Z,23.97
2023-01-25T06:09:28.221Z,24.60
2023-01-25T06:11:57.228Z,25.30
2023-01-25T06:14:25.746Z,26.30
2023-01-25T06:16:54.618Z,24.80
2023-01-25T06:19:41.519Z,23.70
2023-01-25T06:22:34.582Z,23.60
2023-01-25T06:25:05.551Z,28.50
2023-01-25T06:27:34.260Z,24.57
2023-01-25T06:30:02.754Z,28.33
2023-01-25T06:32:33.668Z,27.03
2023-01-25T06:35:02.077Z,27.27
2023-01-25T06:37:30.501Z,25.23
2023-01-25T06:40:00.300Z,24.80
2023-01-25T06:42:28.720Z,23.60
2023-01-25T06:44:57.238Z,25.33
2023-01-25T22:32:21.574Z,35.93
2023-01-25T22:34:50.196Z,34.07
2023-01-25T22:37:18.742Z,34.53
2023-01-25T22:39:48.273Z,34.17
2023-01-25T22:42:16.715Z,34.90
2023-01-25T22:44:45.046Z,36.43
2023-01-25T22:47:13.343Z,36.03
2023-01-25T22:49:43.127Z,37.77
2023-01-25T22:52:11.485Z,35.67
2023-01-25T22:54:40.028Z,36.27
2023-01-25T22:57:10.498Z,34.50
2023-01-25T22:59:42.118Z,40.00
2023-01-25T23:02:10.799Z,38.17
2023-01-25T23:04:44.047Z,39.63
2023-01-25T23:07:18.940Z,38.73
2023-01-25T23:09:51.421Z,37.53
2023-01-25T23:12:20.173Z,37.80
2023-01-25T23:14:51.249Z,37.63
2023-01-25T23:17:37.677Z,38.27
2023-01-25T23:20:12.275Z,38.47
2023-01-25T23:22:41.013Z,39.27
2023-01-25T23:25:12.698Z,37.90
2023-01-25T23:27:41.931Z,38.83
2023-01-25T23:30:11.878Z,38.53
2023-01-25T23:32:49.054Z,36.80
2023-01-25T23:35:20.647Z,38.10
2023-01-25T23:37:49.581Z,37.73
2023-01-25T23:40:18.092Z,37.27
2023-01-25T23:42:46.536Z,37.40
2023-01-25T23:45:14.869Z,39.00
2023-01-25T23:47:43.308Z,39.87
2023-01-25T23:50:13.126Z,38.03
2023-01-25T23:52:43.149Z,38.27
2023-01-25T23:55:12.122Z,37.87
2023-01-25T23:57:40.644Z,38.67
